Home > Products > Valid Products > TAF

000
FTUS41 KCLE 260800 AAA
TAFCLE
TAF AMD
KCLE 260858Z 2609/2712 30005KT P6SM OVC025
     FM261800 06003KT P6SM SCT020 OVC035=



000
FTUS41 KCLE 260500
TAFYNG
TAF
KYNG 260520Z 2606/2706 32008KT P6SM OVC025
      TEMPO 2607/2611 SCT025 OVC200
     FM261500 06003KT P6SM SCT025 OVC200=



000
FTUS41 KCLE 260500
TAFTOL
TAF
KTOL 260520Z 2606/2706 30006KT P6SM OVC020
     FM261800 06005KT P6SM SCT025 OVC040=



000
FTUS41 KCLE 260500
TAFCAK
TAF
KCAK 260520Z 2606/2706 32006KT P6SM OVC025
      TEMPO 2607/2611 SCT025 OVC200
     FM261500 06003KT P6SM SCT025 OVC200=



000
FTUS41 KCLE 260500
TAFFDY
TAF
KFDY 260520Z 2606/2706 29006KT P6SM OVC020
     FM261800 06003KT P6SM SCT025 OVC040=



000
FTUS41 KCLE 260500
TAFERI
TAF
KERI 260520Z 2606/2706 24006KT P6SM OVC025
     FM261800 05005KT P6SM SCT025 OVC040=



000
FTUS41 KCLE 260500
TAFCLE
TAF
KCLE 260520Z 2606/2712 30005KT P6SM OVC025
     FM261800 06003KT P6SM SCT020 OVC035=



000
FTUS41 KCLE 260500
TAFMFD
TAF
KMFD 260520Z 2606/2706 32005KT P6SM OVC015
     FM261800 06003KT P6SM SCT020 OVC040=



000
FTUS41 KCLE 260200 AAB
TAFCLE
TAF AMD
KCLE 260259Z 2603/2706 27007KT P6SM OVC025
     FM261600 06003KT P6SM SCT020 OVC035=



000
FTUS41 KCLE 260100 AAA
TAFCLE
TAF AMD
KCLE 260102Z 2601/2706 28007KT P6SM OVC020
      TEMPO 2601/2603 OVC018
     FM261600 06003KT P6SM SCT020 OVC035=



000
FTUS41 KCLE 252300
TAFFDY
TAF
KFDY 252336Z 2600/2624 27007KT P6SM OVC020
     FM261400 07003KT P6SM SCT025 BKN200=



000
FTUS41 KCLE 252300
TAFTOL
TAF
KTOL 252336Z 2600/2624 28007KT P6SM OVC025
     FM261400 07003KT P6SM SCT025 BKN200=



000
FTUS41 KCLE 252300
TAFYNG
TAF
KYNG 252336Z 2600/2624 26008KT P6SM OVC030
      TEMPO 2600/2603 OVC035
     FM261600 06003KT P6SM SCT025 OVC040=



000
FTUS41 KCLE 252300
TAFERI
TAF
KERI 252336Z 2600/2624 23008KT P6SM OVC020
      TEMPO 2600/2603 6SM -DZ OVC018
     FM261600 05005KT P6SM SCT025 OVC040=



000
FTUS41 KCLE 252300
TAFMFD
TAF
KMFD 252336Z 2600/2624 27007KT P6SM OVC015
     FM261600 06003KT P6SM SCT020 OVC040=



000
FTUS41 KCLE 252300
TAFCAK
TAF
KCAK 252336Z 2600/2624 25007KT P6SM OVC030
     FM261600 06003KT P6SM SCT025 OVC040=



000
FTUS41 KCLE 252300
TAFCLE
TAF
KCLE 252336Z 2600/2706 28007KT P6SM OVC020
     FM261600 06003KT P6SM SCT020 OVC035=



000
FTUS41 KCLE 252300 AAA
TAFERI
TAF AMD
KERI 252306Z 2523/2618 23008KT P6SM OVC025
      TEMPO 2523/2602 6SM -DZ OVC018
     FM261600 05005KT P6SM SCT025 OVC040=



000
FTUS41 KCLE 252100 AAB
TAFCLE
TAF AMD
KCLE 252102Z 2521/2624 24012KT P6SM OVC025
     FM260200 25007KT P6SM BKN025
     FM260600 VRB03KT P6SM OVC250
     FM261400 06003KT P6SM BKN250
     FM261800 04006KT P6SM SCT250=



000
FTUS41 KCLE 251900 AAA
TAFCLE
TAF AMD
KCLE 251929Z 2519/2624 24015G25KT P6SM OVC030
     FM252100 24012KT P6SM OVC025
     FM260200 25007KT P6SM BKN025
     FM260600 VRB03KT P6SM OVC250
     FM261400 06003KT P6SM BKN250
     FM261800 04006KT P6SM SCT250=



000
FTUS41 KCLE 251900 AAA
TAFTOL
TAF AMD
KTOL 251924Z 2519/2618 25015G25KT P6SM OVC020
     FM260200 27006KT P6SM SCT020 BKN250
     FM260600 VRB03KT P6SM BKN250
     FM261400 07003KT P6SM SCT250=



000
FTUS41 KCLE 251700
TAFTOL
TAF
KTOL 251739Z 2518/2618 25018G28KT P6SM OVC018
     FM252200 26012KT P6SM OVC015
     FM260200 27006KT P6SM SCT015 BKN250
     FM260600 VRB03KT P6SM BKN250
     FM261400 07003KT P6SM SCT250=



000
FTUS41 KCLE 251700
TAFYNG
TAF
KYNG 251739Z 2518/2618 24012G20KT P6SM OVC030
     FM252100 25010KT P6SM OVC025
     FM260000 25005KT P6SM OVC018
     FM260600 VRB03KT P6SM BKN100 OVC250
     FM261600 06003KT P6SM BKN250=



000
FTUS41 KCLE 251700
TAFMFD
TAF
KMFD 251739Z 2518/2618 23015G25KT P6SM OVC025
     FM252000 24012KT P6SM OVC018
     FM260300 27006KT P6SM SCT015 BKN250
     FM260600 VRB03KT P6SM OVC250
     FM261400 06003KT P6SM SCT250=



000
FTUS41 KCLE 251700
TAFERI
TAF
KERI 251739Z 2518/2618 22012G20KT P6SM OVC035
     FM252100 23010KT P6SM OVC025
     FM260100 25005KT P6SM OVC020
     FM260600 VRB03KT P6SM BKN100 OVC250
     FM261600 05005KT P6SM BKN250=



000
FTUS41 KCLE 251700
TAFCLE
TAF
KCLE 251739Z 2518/2624 24018G28KT P6SM OVC025
     FM252100 24012G20KT P6SM OVC018
     FM260200 25007KT P6SM BKN018
     FM260600 VRB03KT P6SM OVC250
     FM261400 06003KT P6SM BKN250
     FM261800 04006KT P6SM SCT250=



000
FTUS41 KCLE 251700
TAFFDY
TAF
KFDY 251739Z 2518/2618 25018G28KT P6SM OVC018
     FM252100 26012KT P6SM OVC015
     FM260300 27006KT P6SM SCT015 BKN250
     FM260600 VRB03KT P6SM BKN250
     FM261400 07003KT P6SM SCT250=



000
FTUS41 KCLE 251700
TAFCAK
TAF
KCAK 251739Z 2518/2618 24015G22KT P6SM OVC030
     FM252100 25012KT P6SM OVC025
     FM260000 25005KT P6SM BKN025
     FM260500 VRB03KT P6SM SCT100 OVC250
     FM261500 06003KT P6SM BKN250=



000
FTUS41 KCLE 251500 AAA
TAFERI
TAF AMD
KERI 251535Z 2516/2612 22015G25KT P6SM OVC035
     FM251800 23015G25KT P6SM OVC030
     FM252100 24012G20KT P6SM OVC035
     FM260300 25005KT P6SM OVC035=



000
FTUS41 KCLE 251500 AAA
TAFCAK
TAF AMD
KCAK 251532Z 2516/2612 24015G22KT P6SM OVC025
     FM251900 25012G20KT P6SM OVC030
     FM260000 25005KT P6SM OVC035
     FM260500 VRB03KT P6SM SCT035=



000
FTUS41 KCLE 251500 AAA
TAFYNG
TAF AMD
KYNG 251532Z 2516/2612 23015G22KT P6SM OVC025
     FM251700 24012G20KT P6SM OVC025
     FM260000 25005KT P6SM OVC035
     FM260500 VRB03KT P6SM SCT035=



000
FTUS41 KCLE 251500 AAA
TAFMFD
TAF AMD
KMFD 251531Z 2516/2612 24015G25KT P6SM OVC018
     FM251700 24015G22KT P6SM OVC025
     FM252000 25012KT P6SM OVC030
     FM252300 26005KT P6SM SCT035=



000
FTUS41 KCLE 251500 AAA
TAFFDY
TAF AMD
KFDY 251530Z 2516/2612 24018G28KT P6SM OVC025
     FM251830 25015G25KT P6SM OVC030
     FM252100 26012KT P6SM OVC035
     FM252300 26006KT P6SM SCT035=



000
FTUS41 KCLE 251500 AAA
TAFTOL
TAF AMD
KTOL 251529Z 2515/2612 24018G28KT P6SM OVC025
     FM251800 25015G25KT P6SM OVC030
     FM252100 26012KT P6SM OVC035
     FM260000 27006KT P6SM SCT035=



000
FTUS41 KCLE 251500 AAA
TAFCLE
TAF AMD
KCLE 251518Z 2515/2618 24015G25KT P6SM OVC030
     FM251900 24012G22KT P6SM OVC035
     FM260100 24007KT P6SM SCT035
     FM260900 VRB04KT P6SM OVC035
     FM261300 07004KT P6SM OVC025=



000
FTUS41 KCLE 251100
TAFFDY
TAF
KFDY 251122Z 2512/2612 24015G25KT P6SM OVC025
     FM251900 26012KT P6SM OVC035
     FM252300 26006KT P6SM SCT035=



000
FTUS41 KCLE 251100
TAFCLE
TAF
KCLE 251122Z 2512/2618 23020G30KT P6SM OVC025
     FM251900 24012G24KT P6SM OVC035
     FM260300 24005KT P6SM SCT035
     FM260900 24005KT P6SM OVC035
     FM261200 VRB03KT P6SM OVC025=



000
FTUS41 KCLE 251100
TAFYNG
TAF
KYNG 251122Z 2512/2612 23010KT P6SM OVC025
     FM251700 24012G21KT P6SM OVC035
     FM260000 25004KT P6SM OVC035
     FM260500 VRB03KT P6SM SCT035=



000
FTUS41 KCLE 251100
TAFERI
TAF
KERI 251122Z 2512/2612 21015G25KT P6SM OVC040
     FM251400 23015G25KT P6SM OVC025
     FM251800 24014G22KT P6SM OVC035
     FM252300 25005KT P6SM OVC035=



000
FTUS41 KCLE 251100
TAFCAK
TAF
KCAK 251122Z 2512/2612 24012G22KT P6SM OVC025
     FM251900 25012G24KT P6SM OVC035
     FM260000 25005KT P6SM OVC035
     FM260500 VRB03KT P6SM SCT035=



000
FTUS41 KCLE 251100
TAFMFD
TAF
KMFD 251122Z 2512/2612 21015G25KT P6SM OVC025
     FM252000 24010KT P6SM OVC035
     FM252300 26005KT P6SM SCT035=



000
FTUS41 KCLE 251100
TAFTOL
TAF
KTOL 251122Z 2512/2612 25015G25KT P6SM OVC025
     FM252100 26012KT P6SM OVC035
     FM260000 27008KT P6SM SCT035=



000
FTUS41 KCLE 250900 AAA
TAFCLE
TAF AMD
KCLE 250905Z 2509/2612 24012G24KT P6SM OVC025
     FM252200 25010KT P6SM SCT035=



000
FTUS41 KCLE 250900 AAA
TAFMFD
TAF AMD
KMFD 250904Z 2509/2606 24015G25KT P6SM OVC025
     FM251500 23012G22KT P6SM OVC025
     FM252200 23010KT P6SM SCT035=



000
FTUS41 KCLE 250500
TAFMFD
TAF
KMFD 250525Z 2506/2606 24015G25KT P6SM SCT035
     FM251000 23012G22KT P6SM BKN035
     FM252200 23010KT P6SM SCT035=



000
FTUS41 KCLE 250500
TAFERI
TAF
KERI 250525Z 2506/2606 24015G25KT P6SM OVC035
     FM252200 24010KT P6SM BKN035=



000
FTUS41 KCLE 250500
TAFCLE
TAF
KCLE 250525Z 2506/2612 24020G30KT P6SM BKN035
     FM251100 24015G25KT P6SM OVC035
     FM252200 25010KT P6SM SCT035=



000
FTUS41 KCLE 250500
TAFFDY
TAF
KFDY 250525Z 2506/2606 25020G30KT P6SM OVC030
     FM251000 24015G25KT P6SM OVC025
     FM252200 25008KT P6SM SCT035=



000
FTUS41 KCLE 250500
TAFYNG
TAF
KYNG 250525Z 2506/2606 24012G22KT P6SM SCT035
     FM251200 24012G22KT P6SM BKN035
     FM252100 25008KT P6SM BKN035=



000
FTUS41 KCLE 250500
TAFTOL
TAF
KTOL 250525Z 2506/2606 24018G32KT P6SM OVC025
     FM251000 24015G25KT P6SM OVC020
     FM252200 25010KT P6SM BKN035=



000
FTUS41 KCLE 250500
TAFCAK
TAF
KCAK 250525Z 2506/2606 24012G22KT P6SM SCT035
     FM251100 24012G22KT P6SM BKN035
     FM252100 25008KT P6SM BKN035=



000
FTUS41 KCLE 250400 AAA
TAFCLE
TAF AMD
KCLE 250424Z 2504/2606 24020G30KT P6SM OVC035
     FM251200 24015G25KT P6SM OVC035
     FM252000 25012KT P6SM BKN035=



000
FTUS41 KCLE 250400 AAA
TAFMFD
TAF AMD
KMFD 250421Z 2504/2524 24015G25KT P6SM SCT035
     FM251200 23012G22KT P6SM BKN030
     FM252200 23010KT P6SM BKN035=



000
FTUS41 KCLE 250200 AAA
TAFYNG
TAF AMD
KYNG 250251Z 2503/2524 23018G28KT P6SM OVC035
     FM251200 24012G22KT P6SM OVC035
     FM252100 25012KT P6SM OVC035=



000
FTUS41 KCLE 242300
TAFYNG
TAF
KYNG 242340Z 2500/2524 25022G32KT P6SM OVC030
     FM250500 25015G25KT P6SM OVC030
     FM251200 24012G22KT P6SM OVC030
     FM252100 25012KT P6SM OVC035=



000
FTUS41 KCLE 242300
TAFERI
TAF
KERI 242340Z 2500/2524 25030G40KT P6SM SCT035
     FM250130 22025G35KT P6SM OVC035
     FM250800 22020G30KT P6SM OVC035
     FM251200 24020G30KT P6SM OVC030=



000
FTUS41 KCLE 242300
TAFCAK
TAF
KCAK 242340Z 2500/2524 24022G32KT P6SM OVC035
     FM250600 24012G22KT P6SM OVC030
     FM252100 25012KT P6SM OVC035=



000
FTUS41 KCLE 242300
TAFTOL
TAF
KTOL 242340Z 2500/2524 24025G35KT P6SM OVC025
     FM250600 24015G25KT P6SM OVC025
     FM251800 25015G25KT P6SM OVC035=



000
FTUS41 KCLE 242300
TAFCLE
TAF
KCLE 242340Z 2500/2606 24025G35KT P6SM OVC035
     FM250500 24015G25KT P6SM OVC030
     FM252000 25012KT P6SM OVC030=



000
FTUS41 KCLE 242300
TAFFDY
TAF
KFDY 242340Z 2500/2524 25025G35KT P6SM OVC025
     FM250600 25018G28KT P6SM OVC025
     FM251800 25015G25KT P6SM OVC035=



000
FTUS41 KCLE 242300
TAFMFD
TAF
KMFD 242340Z 2500/2524 23025G35KT P6SM OVC035
     FM250400 24015G25KT P6SM OVC035
     FM251400 23012G22KT P6SM OVC030
     FM252100 23012KT P6SM OVC035=



000
FTUS41 KCLE 242000 AAC
TAFCLE
TAF AMD
KCLE 242044Z 2421/2524 23028G40KT P6SM OVC035
     FM242300 24025G35KT P6SM OVC030
     FM250400 24015G25KT P6SM OVC030
     FM251200 24010G20KT P6SM OVC030
     FM251800 25010KT P6SM OVC030=



000
FTUS41 KCLE 241900 AAB
TAFCLE
TAF AMD
KCLE 241959Z 2420/2524 23028G40KT P6SM OVC035
     FM250000 24025G35KT P6SM OVC030
     FM250700 24015G25KT P6SM OVC030
     FM251200 24010G20KT P6SM OVC030
     FM251800 25010KT P6SM OVC030=



000
FTUS41 KCLE 241900 AAA
TAFMFD
TAF AMD
KMFD 241957Z 2420/2518 23025G35KT P6SM OVC030
      TEMPO 2420/2421 23030G45KT
     FM250100 23020G30KT P6SM OVC035
     FM250600 24015G25KT P6SM OVC030=



000
FTUS41 KCLE 241800 AAA
TAFCLE
TAF AMD
KCLE 241836Z 2419/2524 23028G47KT P6SM OVC035
     FM250000 24025G35KT P6SM OVC035
     FM250700 24015G25KT P6SM OVC030
     FM251200 24010G20KT P6SM OVC030
     FM251800 25010KT P6SM OVC030=



000
FTUS41 KCLE 241700 CCA
TAFFDY
TAF COR
KFDY 241759Z 2418/2518 23030G40KT P6SM BKN015 BKN020
      TEMPO 2418/2420 24020G45KT
     FM242300 24022G30KT P6SM OVC025
     FM250600 24015G25KT P6SM OVC030=



000
FTUS41 KCLE 241700
TAFERI
TAF
KERI 241726Z 2418/2518 21030G45KT P6SM OVC035
      TEMPO 2418/2421 3SM -SHRA
     FM242100 22030G40KT P6SM OVC035
     FM250100 22025G35KT P6SM OVC035
     FM250800 22020G30KT P6SM OVC035
     FM251200 24020G30KT P6SM OVC030=



000
FTUS41 KCLE 241700
TAFYNG
TAF
KYNG 241726Z 2418/2518 22028G40KT P6SM VCSH OVC035
      TEMPO 2419/2421 3SM -SHRA
     FM250000 24020G30KT P6SM OVC035
     FM250800 24015G25KT P6SM OVC035
     FM251200 24015G25KT P6SM OVC030=



000
FTUS41 KCLE 241700
TAFCLE
TAF
KCLE 241726Z 2418/2524 22020G30KT P6SM VCSH OVC035
     FM241900 23028G42KT P6SM OVC035
     FM250000 24025G35KT P6SM OVC035
     FM250700 24015G25KT P6SM OVC030
     FM251200 24010G20KT P6SM OVC030
     FM251800 25010KT P6SM OVC030=



000
FTUS41 KCLE 241700
TAFFDY
TAF
KFDY 241726Z 2418/2518 23030G40KT P6SM BKN020
      TEMPO 2418/2420 24020G45KT
     FM242300 24022G30KT P6SM OVC025
     FM250600 24015G25KT P6SM OVC030=



000
FTUS41 KCLE 241700
TAFMFD
TAF
KMFD 241726Z 2418/2518 23025G35KT P6SM OVC035
      TEMPO 2418/2421 23030G45KT
     FM250100 23020G30KT P6SM OVC035
     FM250600 24015G25KT P6SM OVC030=



000
FTUS41 KCLE 241700
TAFTOL
TAF
KTOL 241726Z 2418/2518 23028G40KT P6SM BKN015
      TEMPO 2418/2421 24030G45KT
     FM242300 24022G30KT P6SM OVC025
     FM250600 24015G25KT P6SM OVC030=



000
FTUS41 KCLE 241700
TAFCAK
TAF
KCAK 241726Z 2418/2518 22028G40KT P6SM VCSH OVC035
      TEMPO 2418/2420 3SM -SHRA
     FM250000 24020G30KT P6SM OVC035
     FM250800 24015G25KT P6SM OVC030=



000
FTUS41 KCLE 241500 AAB
TAFFDY
TAF AMD
KFDY 241506Z 2415/2512 21025G35KT P6SM VCSH SCT020 OVC035
     FM241600 22028G40KT P6SM OVC020
      TEMPO 2416/2418 3SM -SHRA
     FM241800 23030G40KT P6SM BKN020
      TEMPO 2418/2420 24020G45KT
     FM242300 24022G30KT P6SM OVC025
     FM250600 24015G25KT P6SM OVC035=



000
FTUS41 KCLE 241500 AAB
TAFTOL
TAF AMD
KTOL 241504Z 2415/2512 21020G35KT P6SM VCSH SCT015 BKN050
     FM241600 22028G40KT P6SM SCT015 OVC020
      TEMPO 2416/2418 3SM -SHRA
     FM241800 23028G40KT P6SM BKN015
      TEMPO 2418/2421 24030G45KT
     FM242300 24022G30KT P6SM OVC025
     FM250600 24015G25KT P6SM OVC035=



000
FTUS41 KCLE 241500 AAB
TAFCLE
TAF AMD
KCLE 241501Z 2415/2518 20025G35KT P6SM VCSH BKN030 BKN060
     FM241640 25030G42KT 3SM -TSRA BR OVC025CB
     FM241730 22020G30KT P6SM VCSH OVC035
     FM241830 23028G42KT P6SM OVC035
     FM250000 24025G35KT P6SM OVC025
     FM250700 24015G25KT P6SM OVC035
     FM251200 24010G20KT P6SM OVC035=



000
FTUS41 KCLE 241400 AAA
TAFERI
TAF AMD
KERI 241409Z 2414/2512 20025G35KT P6SM SCT025 OVC040
     FM241700 21030G40KT P6SM OVC035
      TEMPO 2418/2421 3SM -SHRA
     FM250100 22025G35KT P6SM OVC035=



000
FTUS41 KCLE 241400 AAA
TAFYNG
TAF AMD
KYNG 241405Z 2414/2512 20018G28KT P6SM SCT015 OVC025
     FM241500 20020G30KT P6SM SCT025 BKN060
     FM241700 22028G40KT P6SM VCSH OVC035
      TEMPO 2418/2421 3SM -SHRA
     FM250000 24022G32KT P6SM OVC025
     FM250800 24015G25KT P6SM OVC035=



000
FTUS41 KCLE 241400 AAA
TAFCAK
TAF AMD
KCAK 241403Z 2414/2512 20020G35KT P6SM BKN025 OVC060
     FM241500 20020G35KT P6SM SCT025 BKN060
     FM241700 22028G40KT P6SM VCSH OVC035
      TEMPO 2417/2420 3SM -SHRA
     FM250000 24022G32KT P6SM OVC025
     FM250800 24015G25KT P6SM OVC035=



000
FTUS41 KCLE 241300 AAB
TAFMFD
TAF AMD
KMFD 241358Z 2414/2512 20020G35KT P6SM VCSH SCT015 BKN035
      TEMPO 2416/2418 VRB30G45KT 5SM -TSRA BR OVC025CB
     FM241800 23025G35KT P6SM OVC030
      TEMPO 2418/2421 23030G45KT
     FM250000 23020G32KT P6SM OVC025
     FM250700 24015G25KT P6SM OVC035=



000
FTUS41 KCLE 241300 AAA
TAFCLE
TAF AMD
KCLE 241357Z 2414/2518 20022G32KT P6SM BKN035 BKN060
      TEMPO 2416/2418 VRB25G40KT 5SM -TSRA BR OVC025CB
     FM241800 22028G42KT P6SM OVC035
     FM250000 24025G35KT P6SM OVC025
     FM250700 24015G25KT P6SM OVC035
     FM251200 24010G20KT P6SM OVC035=



000
FTUS41 KCLE 241300 AAA
TAFMFD
TAF AMD
KMFD 241350Z 2414/2512 20020G35KT P6SM VCSH SCT015 OVC025
      TEMPO 2416/2418 VRB30G45KT 5SM -TSRA BR OVC025CB
     FM241800 23025G35KT P6SM OVC030
      TEMPO 2418/2421 23030G45KT
     FM250000 23020G32KT P6SM OVC025
     FM250700 24015G25KT P6SM OVC035=



000
FTUS41 KCLE 241300 AAA
TAFFDY
TAF AMD
KFDY 241340Z 2414/2512 21020G30KT P6SM VCSH SCT020 OVC035
      TEMPO 2414/2416 VRB30G45KT 5SM -TSRA BR OVC025CB
     FM241600 22028G40KT P6SM OVC020
      TEMPO 2416/2418 3SM -SHRA
     FM241800 23030G40KT P6SM BKN020
      TEMPO 2418/2420 24020G45KT
     FM242300 24022G30KT P6SM OVC025
     FM250600 24015G25KT P6SM OVC035=



000
FTUS41 KCLE 241300 AAA
TAFTOL
TAF AMD
KTOL 241336Z 2414/2512 21015G30KT P6SM VCSH SCT015 BKN050
      TEMPO 2414/2416 VRB30G45KT 5SM TSRA BR SCT015CB OVC030
     FM241600 22028G40KT P6SM OVC015
      TEMPO 2416/2418 3SM -SHRA
     FM241800 23028G40KT P6SM BKN015
      TEMPO 2418/2421 24030G45KT
     FM242300 24022G30KT P6SM OVC025
     FM250600 24015G25KT P6SM OVC035=



000
FTUS41 KCLE 241100
TAFYNG
TAF
KYNG 241126Z 2412/2512 20018G28KT P6SM VCSH SCT015 OVC025
      TEMPO 2412/2416 OVC015
     FM242000 22028G40KT P6SM OVC035
      TEMPO 2420/2422 3SM -SHRA
     FM250000 24022G32KT P6SM OVC025
     FM250800 24015G25KT P6SM OVC035=



000
FTUS41 KCLE 241100
TAFMFD
TAF
KMFD 241126Z 2412/2512 20020G35KT P6SM VCSH SCT015 OVC025
      TEMPO 2412/2416 OVC015
     FM241700 23025G35KT P6SM OVC030
      TEMPO 2417/2419 3SM -SHRA
     FM250000 23020G32KT P6SM OVC025
     FM250700 24015G25KT P6SM OVC035=



000
FTUS41 KCLE 241100
TAFCAK
TAF
KCAK 241126Z 2412/2512 18018G28KT P6SM VCSH SCT015 OVC025
      TEMPO 2412/2416 OVC015
     FM241800 22028G40KT P6SM OVC035
      TEMPO 2418/2420 3SM -SHRA
     FM250000 24022G32KT P6SM OVC025
     FM250800 24015G25KT P6SM OVC035=



000
FTUS41 KCLE 241100
TAFTOL
TAF
KTOL 241126Z 2412/2512 21015G25KT P6SM VCSH SCT008 OVC015
      TEMPO 2412/2416 VRB30G45KT 5SM TSRA BR OVC008CB
     FM241600 24028G40KT P6SM OVC015
      TEMPO 2416/2418 3SM -SHRA
     FM242300 24022G30KT P6SM OVC025
     FM250600 24015G25KT P6SM OVC035=



000
FTUS41 KCLE 241100
TAFFDY
TAF
KFDY 241126Z 2412/2512 21015G25KT P6SM VCSH SCT008 OVC035
      TEMPO 2412/2416 VRB30G45KT 5SM -TSRA BR OVC025CB
     FM241600 24028G40KT P6SM OVC015
      TEMPO 2416/2418 3SM -SHRA
     FM242300 24022G30KT P6SM OVC025
     FM250600 24015G25KT P6SM OVC035=



000
FTUS41 KCLE 241100
TAFERI
TAF
KERI 241126Z 2412/2512 20025G35KT P6SM VCSH SCT025 OVC040
     FM242000 21030G40KT P6SM OVC035
      TEMPO 2420/2422 3SM -SHRA
     FM250100 22025G35KT P6SM OVC035=



000
FTUS41 KCLE 241100
TAFCLE
TAF
KCLE 241126Z 2412/2518 21022G32KT P6SM VCSH OVC025
      TEMPO 2412/2413 OVC015
     FM241800 22028G42KT P6SM OVC035
      TEMPO 2418/2420 3SM -SHRA
     FM250000 24025G35KT P6SM OVC025
     FM250700 24015G25KT P6SM OVC035
     FM251200 24010G20KT P6SM OVC035=



000
FTUS41 KCLE 240900 AAB
TAFCAK
TAF AMD
KCAK 240901Z 2409/2506 18018G28KT P6SM SCT015 OVC025
      TEMPO 2409/2413 5SM -SHRA OVC015
     FM241800 22028G40KT P6SM OVC035
      TEMPO 2418/2420 3SM -SHRA
     FM250000 24022G32KT P6SM OVC035=



000
FTUS41 KCLE 240900 AAA
TAFYNG
TAF AMD
KYNG 240901Z 2409/2506 18018G28KT P6SM SCT015 OVC025
      TEMPO 2409/2413 -SHRA OVC015
     FM242000 22028G40KT P6SM OVC035
      TEMPO 2420/2422 3SM -SHRA
     FM250000 24022G32KT P6SM OVC035=



000
FTUS41 KCLE 240900 AAB
TAFCLE
TAF AMD
KCLE 240900Z 2409/2512 18022G32KT P6SM OVC025
      TEMPO 2409/2413 -SHRA OVC015
     FM241800 22028G42KT P6SM OVC035
      TEMPO 2418/2420 3SM -SHRA
     FM250000 24025G35KT P6SM OVC035=



000
FTUS41 KCLE 240700 AAA
TAFCAK
TAF AMD
KCAK 240724Z 2407/2506 18018G28KT P6SM OVC035
     FM241800 22028G40KT P6SM OVC035
      TEMPO 2418/2420 3SM -SHRA
     FM250000 24022G32KT P6SM OVC035=



000
FTUS41 KCLE 240700 AAA
TAFMFD
TAF AMD
KMFD 240723Z 2407/2506 19020G35KT P6SM SCT012 OVC025
      TEMPO 2409/2412 5SM -SHRA OVC012
     FM241700 23028G40KT P6SM OVC030
      TEMPO 2417/2419 3SM -SHRA
     FM250000 23020G32KT P6SM OVC035=



000
FTUS41 KCLE 240700 AAA
TAFCLE
TAF AMD
KCLE 240723Z 2407/2512 18022G32KT P6SM OVC035
     FM241800 22028G42KT P6SM OVC035
      TEMPO 2418/2420 3SM -SHRA
     FM250000 24025G35KT P6SM OVC035=



000
FTUS41 KCLE 240700 AAA
TAFFDY
TAF AMD
KFDY 240722Z 2407/2506 18015G25KT 6SM -SHRA SCT009 OVC015
     FM240800 20015G25KT P6SM VCSH BKN015 OVC020
      TEMPO 2408/2412 4SM -SHRA
     FM241600 25028G42KT P6SM OVC025
      TEMPO 2416/2418 3SM -SHRA
     FM242300 24022G32KT P6SM OVC035=



000
FTUS41 KCLE 240700 AAA
TAFTOL
TAF AMD
KTOL 240721Z 2407/2506 18012G22KT 6SM -SHRA OVC010
     FM240800 21015G25KT P6SM VCSH BKN012 OVC020
      TEMPO 2409/2413 5SM -SHRA
     FM241600 24028G40KT P6SM OVC025
      TEMPO 2416/2418 3SM -SHRA
     FM242300 24022G32KT P6SM OVC035=



000
FTUS41 KCLE 240500
TAFERI
TAF
KERI 240525Z 2406/2506 15025G38KT 6SM -SHRA OVC045
     FM240900 18025G35KT P6SM SCT025 OVC040
     FM242000 21030G40KT P6SM OVC035
      TEMPO 2420/2422 3SM -SHRA
     FM250100 22025G35KT P6SM OVC035=



000
FTUS41 KCLE 240500
TAFTOL
TAF
KTOL 240525Z 2406/2506 15012G22KT 6SM -SHRA OVC006
     FM240800 21015G25KT P6SM VCSH BKN012 OVC020
      TEMPO 2409/2413 5SM -SHRA
     FM241600 24028G40KT P6SM OVC025
      TEMPO 2416/2418 3SM -SHRA
     FM242300 24022G32KT P6SM OVC035=



000
FTUS41 KCLE 240500
TAFCAK
TAF
KCAK 240525Z 2406/2506 16018G28KT 4SM -SHRA SCT012 OVC022
      TEMPO 2406/2407 OVC012
     FM240800 18018G28KT P6SM OVC035
     FM241800 22028G40KT P6SM OVC035
      TEMPO 2418/2420 3SM -SHRA
     FM250000 24022G32KT P6SM OVC035=



000
FTUS41 KCLE 240500
TAFYNG
TAF
KYNG 240525Z 2406/2506 13018G28KT 6SM -SHRA SCT025 OVC035
      TEMPO 2406/2408 4SM -SHRA OVC025
     FM240800 18018G28KT P6SM OVC035
     FM242000 22028G40KT P6SM OVC035
      TEMPO 2420/2422 3SM -SHRA
     FM250000 24022G32KT P6SM OVC035=



000
FTUS41 KCLE 240500
TAFCLE
TAF
KCLE 240525Z 2406/2512 14020G32KT 6SM -SHRA SCT015 OVC030
      TEMPO 2406/2408 4SM -SHRA OVC015
     FM240800 18022G32KT P6SM OVC035
     FM241800 22028G42KT P6SM OVC035
      TEMPO 2418/2420 3SM -SHRA
     FM250000 24025G35KT P6SM OVC035=



000
FTUS41 KCLE 240500
TAFFDY
TAF
KFDY 240525Z 2406/2506 14015G25KT 6SM -SHRA SCT006 OVC012
     FM240800 20015G25KT P6SM VCSH BKN012 OVC020
      TEMPO 2408/2412 4SM -SHRA
     FM241600 25028G42KT P6SM OVC025
      TEMPO 2416/2418 3SM -SHRA
     FM242300 24022G32KT P6SM OVC035=



000
FTUS41 KCLE 240500
TAFMFD
TAF
KMFD 240525Z 2406/2506 14020G35KT 6SM -SHRA SCT006 OVC015
     FM240700 20020G35KT P6SM SCT012 OVC025
      TEMPO 2409/2412 5SM -SHRA OVC012
     FM241700 23028G40KT P6SM OVC030
      TEMPO 2417/2419 3SM -SHRA
     FM250000 23020G32KT P6SM OVC035=



000
FTUS41 KCLE 240400 AAB
TAFTOL
TAF AMD
KTOL 240448Z 2405/2424 15012G22KT 6SM -SHRA OVC006
      TEMPO 2405/2406 3SM -SHRA
     FM240800 21015G25KT P6SM VCSH BKN012 OVC020
      TEMPO 2409/2413 5SM -SHRA
     FM241600 24028G40KT P6SM OVC025
      TEMPO 2416/2418 3SM -SHRA
     FM242300 24022G32KT P6SM OVC035=



000
FTUS41 KCLE 240400 AAA
TAFYNG
TAF AMD
KYNG 240434Z 2405/2424 13018G28KT 6SM -SHRA SCT025 OVC035
      TEMPO 2405/2408 4SM -SHRA OVC025
     FM240800 18018G28KT P6SM VCSH SCT012 OVC030
     FM242000 22028G40KT P6SM OVC035
      TEMPO 2420/2422 3SM -SHRA=



000
FTUS41 KCLE 240400 AAA
TAFCAK
TAF AMD
KCAK 240433Z 2405/2424 14018G28KT 4SM -SHRA SCT012 OVC022
      TEMPO 2406/2407 OVC012
     FM240800 18018G28KT P6SM VCSH SCT012 OVC030
     FM241800 22028G40KT P6SM OVC035
      TEMPO 2418/2420 3SM -SHRA=



000
FTUS41 KCLE 240300 AAA
TAFTOL
TAF AMD
KTOL 240350Z 2404/2424 14012G22KT 4SM -SHRA SCT006 OVC012
      TEMPO 2405/2409 OVC006
     FM241000 21015G25KT P6SM VCSH BKN012 OVC020
     FM241600 24028G40KT P6SM OVC025
      TEMPO 2416/2418 3SM -SHRA
     FM242300 24022G32KT P6SM OVC035=



000
FTUS41 KCLE 240300 AAA
TAFTOL
TAF AMD
KTOL 240350Z 2404/2424 14012G22KT 4SM -SHRA SCT006 OVC012
      TEMPO 2405/2409 OVC006
     FM241000 21015G25KT P6SM VCSH BKN012 OVC020
     FM241600 24028G40KT P6SM OVC025
      TEMPO 2416/2418 3SM -SHRA
     FM242300 24022G32KT P6SM OVC035=



000
FTUS41 KCLE 240300 AAB
TAFFDY
TAF AMD
KFDY 240349Z 2404/2424 14015G25KT 5SM -SHRA SCT006 OVC012
      TEMPO 2406/2409 OVC006
     FM240900 20015G25KT P6SM VCSH BKN012 OVC020
     FM241600 25028G42KT P6SM OVC025
      TEMPO 2416/2418 3SM -SHRA
     FM242300 24022G32KT P6SM OVC035=



000
FTUS41 KCLE 240300 AAB
TAFFDY
TAF AMD
KFDY 240349Z 2404/2424 14015G25KT 5SM -SHRA SCT006 OVC012
      TEMPO 2406/2409 OVC006
     FM240900 20015G25KT P6SM VCSH BKN012 OVC020
     FM241600 25028G42KT P6SM OVC025
      TEMPO 2416/2418 3SM -SHRA
     FM242300 24022G32KT P6SM OVC035=



000
FTUS41 KCLE 240300 AAA
TAFCLE
TAF AMD
KCLE 240343Z 2404/2506 14020G32KT 6SM -SHRA SCT020 OVC040
     FM240530 14020G32KT 6SM -SHRA SCT012 OVC030
      TEMPO 2406/2408 4SM -SHRA OVC012
     FM240800 18022G32KT P6SM VCSH SCT012 OVC030
     FM241800 22028G42KT P6SM OVC030
      TEMPO 2418/2420 3SM -SHRA
     FM250000 24025G35KT P6SM VCSH OVC030=



000
FTUS41 KCLE 240300 AAA
TAFCLE
TAF AMD
KCLE 240343Z 2404/2506 14020G32KT 6SM -SHRA SCT020 OVC040
     FM240530 14020G32KT 6SM -SHRA SCT012 OVC030
      TEMPO 2406/2408 4SM -SHRA OVC012
     FM240800 18022G32KT P6SM VCSH SCT012 OVC030
     FM241800 22028G42KT P6SM OVC030
      TEMPO 2418/2420 3SM -SHRA
     FM250000 24025G35KT P6SM VCSH OVC030=



000
FTUS41 KCLE 240300 AAA
TAFMFD
TAF AMD
KMFD 240334Z 2404/2424 14020G35KT 6SM -SHRA SCT006 OVC015
      TEMPO 2404/2407 4SM -SHRA OVC006
     FM240800 20020G35KT P6SM VCSH BKN012 OVC020
     FM241700 23028G40KT P6SM OVC025
      TEMPO 2417/2419 3SM -SHRA=



000
FTUS41 KCLE 240300 AAA
TAFMFD
TAF AMD
KMFD 240334Z 2404/2424 14020G35KT 6SM -SHRA SCT006 OVC015
      TEMPO 2404/2407 4SM -SHRA OVC006
     FM240800 20020G35KT P6SM VCSH BKN012 OVC020
     FM241700 23028G40KT P6SM OVC025
      TEMPO 2417/2419 3SM -SHRA=



000
FTUS41 KCLE 240300 AAA
TAFFDY
TAF AMD
KFDY 240327Z 2403/2424 15018G28KT 5SM -SHRA SCT006 OVC015
      TEMPO 2403/2405 2SM -SHRA OVC006
     FM240500 14015G25KT 4SM -SHRA OVC006
     FM241000 20015G25KT P6SM VCSH BKN012 OVC020
     FM241600 25028G40KT P6SM OVC025
      TEMPO 2416/2418 3SM -SHRA=



000
FTUS41 KCLE 240300 AAA
TAFFDY
TAF AMD
KFDY 240327Z 2403/2424 15018G28KT 5SM -SHRA SCT006 OVC015
      TEMPO 2403/2405 2SM -SHRA OVC006
     FM240500 14015G25KT 4SM -SHRA OVC006
     FM241000 20015G25KT P6SM VCSH BKN012 OVC020
     FM241600 25028G40KT P6SM OVC025
      TEMPO 2416/2418 3SM -SHRA=



000
FTUS41 KCLE 232300 CCA
TAFCAK
TAF COR
KCAK 232353Z 2400/2424 14012KT P6SM OVC060
     FM240100 14015KT 6SM -SHRA OVC045 WS020/18050KT
     FM240500 14018G28KT 4SM -SHRA SCT008 OVC012
      TEMPO 2405/2409 OVC008
     FM241100 18018G28KT P6SM VCSH SCT012 OVC030
     FM241800 22028G40KT P6SM OVC030
      TEMPO 2418/2420 3SM -SHRA=



000
FTUS41 KCLE 232300 CCA
TAFERI
TAF COR
KERI 232346Z 2400/2424 15012G22KT P6SM SCT035 OVC080
     FM240500 14025G35KT 6SM -SHRA OVC035
     FM240700 14025G35KT 4SM -SHRA SCT008 OVC018
     FM241100 18025G35KT P6SM VCSH BKN025 OVC040
     FM242000 21030G40KT P6SM OVC030
      TEMPO 2420/2422 3SM -SHRA=



000
FTUS41 KCLE 232300 CCA
TAFYNG
TAF COR
KYNG 232343Z 2400/2424 12010KT P6SM OVC060
     FM240200 14015KT 6SM -SHRA OVC045 WS020/18055KT
     FM240500 14018G28KT 4SM -SHRA SCT008 OVC012
      TEMPO 2405/2409 OVC008
     FM241100 18018G28KT P6SM VCSH SCT012 OVC030
     FM242000 22028G40KT P6SM OVC030
      TEMPO 2420/2422 3SM -SHRA=



000
FTUS41 KCLE 232300
TAFYNG
TAF
KYNG 232340Z 2400/2424 14010KT P6SM SCT015 OVC035
      TEMPO 2400/2403 5SM -SHRA BKN015
     FM240300 12015G25KT 2SM -SHRA OVC006
     FM240900 18018G28KT 5SM BR VCSH BKN018 OVC025=



000
FTUS41 KCLE 232300
TAFCLE
TAF
KCLE 232340Z 2400/2506 14015G25KT P6SM OVC060
     FM240130 14015G25KT 6SM -SHRA OVC045
     FM240500 14018G28KT 4SM -SHRA SCT008 OVC012
     FM241100 18018G28KT P6SM VCSH SCT012 OVC030
     FM241800 22028G40KT P6SM OVC030
      TEMPO 2418/2420 3SM -SHRA
     FM250000 24025G35KT P6SM VCSH OVC030=



000
FTUS41 KCLE 232300
TAFCAK
TAF
KCAK 232340Z 2400/2424 14012KT P6SM OVC060
     FM240100 14015KT 6SM -SHRA OVC045 WS020/18050KT
     FM240600 14018G28KT 4SM -SHRA SCT008 OVC012
     FM241100 18018G28KT P6SM VCSH SCT012 OVC030
     FM241800 22028G40KT P6SM OVC030
      TEMPO 2418/2420 3SM -SHRA=



000
FTUS41 KCLE 232300
TAFFDY
TAF
KFDY 232340Z 2400/2424 10010KT 6SM -SHRA SCT012 OVC045
      WS020/18048KT
     FM240200 12015KT 4SM -SHRA SCT006 OVC015 WS020/19055KT
      TEMPO 2402/2405 2SM -SHRA OVC006
     FM240500 14015G25KT 4SM -SHRA OVC006
     FM241000 20015G25KT P6SM VCSH BKN012 OVC020
     FM241600 25028G40KT P6SM OVC025
      TEMPO 2416/2418 3SM -SHRA=



000
FTUS41 KCLE 232300
TAFTOL
TAF
KTOL 232340Z 2400/2424 10010KT 6SM -SHRA SCT012 OVC045
      WS020/18048KT
     FM240200 12015KT 4SM -SHRA SCT006 OVC015 WS020/19055KT
      TEMPO 2402/2405 2SM -SHRA OVC006
     FM240500 14015G25KT 4SM -SHRA OVC006
     FM241000 20015G25KT P6SM VCSH BKN012 OVC020
     FM241600 25028G40KT P6SM OVC025
      TEMPO 2416/2418 3SM -SHRA=



000
FTUS41 KCLE 232300
TAFMFD
TAF
KMFD 232340Z 2400/2424 13015G25KT 6SM -SHRA SCT012 OVC045
     FM240500 13015G25KT 5SM -SHRA SCT006 OVC015
     FM240700 14015G25KT 4SM -SHRA OVC006
     FM241100 20015G25KT P6SM VCSH BKN012 OVC020
     FM241700 23028G40KT P6SM OVC025
      TEMPO 2417/2419 3SM -SHRA=



000
FTUS41 KCLE 232300
TAFERI
TAF
KERI 232340Z 2400/2424 15014G22KT P6SM BKN025 OVC040
     FM240400 14025G35KT 3SM -SHRA OVC010
     FM241000 18025G35KT 5SM BR VCSH BKN025 OVC040=



000
FTUS41 KCLE 232200 AAA
TAFERI
TAF AMD
KERI 232219Z 2322/2418 16014G22KT P6SM SCT040 OVC080
     FM240200 15014G22KT 6SM -SHRA BKN025 OVC040
     FM240400 14025G35KT 3SM -SHRA OVC010
     FM241000 18025G35KT 5SM BR VCSH BKN025 OVC040=



000
FTUS41 KCLE 232200 AAA
TAFERI
TAF AMD
KERI 232219Z 2322/2418 16014G22KT P6SM SCT040 OVC080
     FM240200 15014G22KT 6SM -SHRA BKN025 OVC040
     FM240400 14025G35KT 3SM -SHRA OVC010
     FM241000 18025G35KT 5SM BR VCSH BKN025 OVC040=



000
FTUS41 KCLE 232200 AAA
TAFYNG
TAF AMD
KYNG 232217Z 2322/2418 14010KT P6SM OVC080
     FM240000 14010KT P6SM SCT015 OVC035
      TEMPO 2400/2403 5SM -SHRA BKN015
     FM240300 12015G25KT 2SM -SHRA OVC006
     FM240900 18018G28KT 5SM BR VCSH BKN018 OVC025=



000
FTUS41 KCLE 232200 AAA
TAFYNG
TAF AMD
KYNG 232217Z 2322/2418 14010KT P6SM OVC080
     FM240000 14010KT P6SM SCT015 OVC035
      TEMPO 2400/2403 5SM -SHRA BKN015
     FM240300 12015G25KT 2SM -SHRA OVC006
     FM240900 18018G28KT 5SM BR VCSH BKN018 OVC025=



000
FTUS41 KCLE 232200 AAA
TAFCAK
TAF AMD
KCAK 232216Z 2322/2418 14010KT P6SM OVC060
     FM240000 14012KT P6SM BKN020 OVC035
      TEMPO 2400/2402 5SM -SHRA BKN015
     FM240200 13015G25KT 2SM -SHRA OVC006
     FM240800 18020G30KT 5SM BR VCSH BKN018 OVC025=



000
FTUS41 KCLE 232200 AAA
TAFCAK
TAF AMD
KCAK 232216Z 2322/2418 14010KT P6SM OVC060
     FM240000 14012KT P6SM BKN020 OVC035
      TEMPO 2400/2402 5SM -SHRA BKN015
     FM240200 13015G25KT 2SM -SHRA OVC006
     FM240800 18020G30KT 5SM BR VCSH BKN018 OVC025=



000
FTUS41 KCLE 232200 AAA
TAFMFD
TAF AMD
KMFD 232215Z 2322/2418 16010KT P6SM VCSH SCT025 OVC045
     FM240000 13014G22KT 4SM -SHRA SCT008 OVC012
     FM240200 14018G28KT 2SM -SHRA OVC006
     FM241000 18020G30KT P6SM VCSH BKN012 OVC020=



000
FTUS41 KCLE 232000 AAA
TAFCLE
TAF AMD
KCLE 232042Z 2321/2424 15010KT P6SM BKN040
     FM240000 15014G22KT P6SM OVC025
     FM240300 14018G28KT 2SM -SHRA SCT008 OVC012
     FM240800 18020G30KT 5SM -SHRA BKN012 OVC025
     FM241600 18023G33KT P6SM OVC030=



000
FTUS41 KCLE 231700
TAFCAK
TAF
KCAK 231739Z 2318/2418 16008KT P6SM SCT025 OVC060
     FM232100 14012KT P6SM BKN020 OVC035
      TEMPO 2400/2402 5SM -SHRA BKN015
     FM240200 13015G25KT 2SM -SHRA OVC006
     FM240800 18020G30KT 5SM BR VCSH BKN018 OVC025=



000
FTUS41 KCLE 231700
TAFYNG
TAF
KYNG 231739Z 2318/2418 14010KT P6SM BKN025 OVC045
      TEMPO 2400/2403 5SM -SHRA BKN015
     FM240300 12015G25KT 2SM -SHRA OVC006
     FM240900 18018G28KT 5SM BR VCSH BKN018 OVC025=



000
FTUS41 KCLE 231700
TAFCLE
TAF
KCLE 231739Z 2318/2424 16010KT P6SM VCSH SCT025 OVC035
     FM232100 15014G22KT P6SM OVC025
      TEMPO 2323/2402 5SM -SHRA BKN015
     FM240200 14018G28KT 2SM -SHRA SCT008 OVC012
     FM240800 18020G30KT 5SM -SHRA BKN012 OVC025
     FM241600 18023G33KT P6SM OVC030=



000
FTUS41 KCLE 231700
TAFTOL
TAF
KTOL 231739Z 2318/2418 16010KT P6SM SCT025 BKN040 OVC080
      TEMPO 2321/2323 5SM -SHRA BKN025
     FM232300 13012G18KT 4SM -SHRA SCT006 OVC012
     FM240300 12015G25KT 2SM -SHRA OVC006
     FM241000 20015G25KT 5SM BR VCSH BKN012 OVC020=



000
FTUS41 KCLE 231700
TAFERI
TAF
KERI 231739Z 2318/2418 16014G22KT P6SM SCT025 OVC045
     FM232200 15014G22KT P6SM BKN025 OVC040
     FM240400 14025G35KT 3SM -SHRA OVC010
     FM241000 18025G35KT 5SM BR VCSH BKN025 OVC040=



000
FTUS41 KCLE 231700
TAFFDY
TAF
KFDY 231739Z 2318/2418 15010KT P6SM SCT025 OVC035
      TEMPO 2320/2322 5SM -SHRA BKN025
     FM232200 13012G18KT 4SM -SHRA SCT006 OVC012
     FM240200 12015G25KT 2SM -SHRA OVC006
     FM240800 19015G25KT 5SM BR VCSH BKN012 OVC020=



000
FTUS41 KCLE 231700
TAFMFD
TAF
KMFD 231739Z 2318/2418 16010KT P6SM SCT025 OVC045
      TEMPO 2321/2323 5SM -SHRA BKN025
     FM232300 13014G22KT 4SM -SHRA SCT008 OVC012
     FM240200 14018G28KT 2SM -SHRA OVC006
     FM241000 18020G30KT P6SM VCSH BKN012 OVC020=



000
FTUS41 KCLE 231500 AAA
TAFCAK
TAF AMD
KCAK 231511Z 2315/2412 16010KT 6SM -SHRA OVC035
      TEMPO 2315/2318 5SM -SHRA OVC025
     FM231800 18012KT P6SM OVC035
     FM232100 14012KT P6SM SCT020 OVC035
     FM240200 13015G25KT 5SM -SHRA SCT008 OVC018
     FM240700 18018G28KT P6SM VCSH BKN018 OVC025=



000
FTUS41 KCLE 231500 AAA
TAFERI
TAF AMD
KERI 231510Z 2315/2412 18012KT 6SM -SHRA OVC035
      TEMPO 2315/2318 5SM -SHRA BKN025
     FM231800 18012G22KT P6SM OVC035
     FM232100 15015G25KT P6SM OVC040
     FM240400 15025G35KT 5SM -SHRA OVC025
     FM240900 18025G35KT P6SM VCSH BKN025 OVC040=



000
FTUS41 KCLE 231400 AAA
TAFCLE
TAF AMD
KCLE 231455Z 2315/2418 19012KT P6SM VCSH SCT025 OVC035
     FM232100 15014G22KT P6SM SCT020 OVC035
     FM240100 14020G30KT 5SM -SHRA SCT008 OVC020
     FM240800 18020G30KT P6SM VCSH BKN018 OVC025
     FM241500 18023G33KT P6SM OVC030=



000
FTUS41 KCLE 231100
TAFMFD
TAF
KMFD 231125Z 2312/2412 19012KT 6SM -SHRA OVC035
     FM231500 18014KT P6SM OVC035
     FM231900 15010G20KT P6SM SCT020 OVC035
     FM240100 14018G28KT 4SM -SHRA SCT006 OVC012
     FM240500 17020G30KT P6SM VCSH BKN012 OVC020=



000
FTUS41 KCLE 231100
TAFTOL
TAF
KTOL 231125Z 2312/2412 18010KT 6SM -SHRA OVC035
      TEMPO 2312/2314 4SM -SHRA OVC025
     FM231500 18012KT P6SM OVC035
     FM232100 15010G20KT 4SM -SHRA SCT006 OVC012
     FM240200 12015G25KT 4SM -SHRA BKN006 OVC012
     FM240800 19015G25KT P6SM VCSH BKN012 OVC020=



000
FTUS41 KCLE 231100
TAFFDY
TAF
KFDY 231125Z 2312/2412 18010KT 6SM -SHRA OVC035
     FM231500 18012KT P6SM OVC035
     FM231900 15010G20KT P6SM SCT020 OVC035
     FM240000 13010G20KT 4SM -SHRA SCT006 OVC012
     FM240500 19020G30KT P6SM VCSH BKN012 OVC020=



000
FTUS41 KCLE 231100
TAFCLE
TAF
KCLE 231125Z 2312/2418 19012KT 6SM -SHRA SCT025 OVC035
     FM231600 18012KT P6SM OVC035
     FM232200 15015G25KT P6SM SCT020 OVC035
     FM240200 14020G30KT 5SM -SHRA SCT008 OVC018
     FM240800 18020G30KT P6SM VCSH BKN018 OVC025
     FM241500 18023G33KT P6SM OVC030=



000
FTUS41 KCLE 231100
TAFCAK
TAF
KCAK 231125Z 2312/2412 21010KT 6SM -SHRA OVC035
     FM231500 18012KT P6SM OVC035
     FM232100 14012KT P6SM SCT020 OVC035
     FM240200 13015G25KT 5SM -SHRA SCT008 OVC018
     FM240700 18018G28KT P6SM VCSH BKN018 OVC025=



000
FTUS41 KCLE 231100
TAFYNG
TAF
KYNG 231125Z 2312/2412 21010KT 6SM -SHRA OVC035
     FM231500 15011KT P6SM OVC035
     FM240300 12015G25KT 5SM -SHRA SCT008 OVC018
     FM240800 18015G25KT P6SM VCSH BKN018 OVC025=



000
FTUS41 KCLE 231100
TAFERI
TAF
KERI 231125Z 2312/2412 19012KT 6SM -SHRA OVC035
     FM231600 18012G22KT P6SM OVC035
     FM232100 15015G25KT P6SM OVC040
     FM240400 15025G35KT 5SM -SHRA OVC025
     FM240900 18025G35KT P6SM VCSH BKN025 OVC040=



    US Dept of Commerce
    National Oceanic and Atmospheric Administration
    National Weather Service
    1325 East West Highway
    Silver Spring, MD 20910
    Page Author: NWS Internet Services Team
Disclaimer
Information Quality
Credits
Glossary
Privacy Policy
Freedom of Information Act (FOIA)
About Us
Career Opportunities